Prochaines Courses

Connexion

10km

10 KM D'EQUIHEN-PLAGE du 28/09/14 (Reelle 10)
Rang Dossard Nom Prénom Temps Cat Rang Cat Ecart Ecart Cat Club Vitesse Km/h Temps au Km
1 542 THESSE YANN 00:37:24 V1M 1 00:00:00 00:00:00 AC AUDOMAROIS 16,043 03:44
2 550 GILLON CHRISTOPHE 00:38:37 SEM 1 00:01:13 00:00:00   15,537 03:52
3 526 LEPRETRE CYRILLE 00:39:33 SEM 2 00:02:09 00:00:56 LE DRAPEAU 15,171 03:57
4 522 DOCQUOIS FREDERIC 00:39:55 V1M 2 00:02:31 00:02:31 LE DRAPEAU 15,031 04:00
5 543 PAQUES CHRISTOPHE 00:42:34 V1M 3 00:05:10 00:05:10 ATHLETISME CLUB OUTREAU 14,096 04:15
6 531 NOEL DAVID 00:43:07 V1M 4 00:05:43 00:05:43 ATHLETIQUE CLUB CAPELLOIS 13,916 04:19
7 556 BOULARD STEPHANE 00:43:57 SEM 3 00:06:33 00:05:20 NON LICENCIE 13,652 04:24
8 532 MORICE ARNAUD 00:43:59 V1M 5 00:06:35 00:06:35 ATHLETISME CLUB OUTREAU 13,642 04:24
9 551 NEMPONT FREDERIC 00:44:06 V1M 6 00:06:42 00:06:42 NON LICENCIE 13,605 04:25
10 503 JUSTIN FREDERIC 00:44:16 SEM 4 00:06:52 00:05:39 NON LICENCIE 13,554 04:26
11 530 BRIEZ ARNAUD 00:44:18 SEM 5 00:06:54 00:05:41 ATHLETIQUE CLUB CAPELLOIS 13,544 04:26
12 515 LEHON LUDOVIC 00:44:32 SEM 6 00:07:08 00:05:55 NON LICENCIE 13,473 04:27
13 517 BORDEZ FRANCK 00:45:05 V2M 1 00:07:41 00:00:00 SPORT PLUS 13,309 04:31
14 511 DEWEER NICOLAS 00:45:09 SEM 7 00:07:45 00:06:32 NON LICENCIE 13,289 04:31
15 546 LE SCIELLOUR BRUNO 00:45:25 V2M 2 00:08:01 00:00:20 NON LICENCIE 13,211 04:33
16 559 COPPIN NICOLAS 00:45:33 V1M 7 00:08:09 00:08:09 ATHLETISME CLUB OUTREAU 13,172 04:33
17 505 JONCQUEL JEAN-PAUL 00:46:00 V2M 3 00:08:36 00:00:55 OPALE TRAIL NATURE 13,043 04:36
18 520 FLAHAUT DANIEL 00:46:37 V1M 8 00:09:13 00:09:13 LE DRAPEAU 12,871 04:40
19 518 HACQUEL MICHEL 00:46:38 V1M 9 00:09:14 00:09:14 LE DRAPEAU 12,866 04:40
20 541 BEAUGRAND GREGORY 00:47:23 V1M 10 00:09:59 00:09:59 ATHLETIQUE CLUB CAPELLOIS 12,663 04:44
21 533 GODET JEROME 00:47:40 V1M 11 00:10:16 00:10:16   12,587 04:46
22 538 BADON EMMANUEL 00:47:44 SEM 8 00:10:20 00:09:07 NON LICENCIE 12,570 04:46
23 502 CHARTAUX RAPHAEL 00:48:01 V1M 12 00:10:37 00:10:37 CS NESLES 12,496 04:48
24 539 ROUSSEL STEPHANE 00:48:15 V2M 4 00:10:51 00:03:10 COLEMBERT 12,435 04:50
25 524 DOCQUOIS FLORIAN 00:48:45 JUM 1 00:11:21 00:00:00 LE DRAPEAU 12,308 04:53
26 528 PODEVIN JEAN-PIERRE 00:49:27 V2M 5 00:12:03 00:04:22 ATHLETISME CLUB OUTREAU 12,133 04:57
27 523 DOCQUOIS MICHEL 00:49:58 V1M 13 00:12:34 00:12:34 ATHLETISME CLUB OUTREAU 12,008 05:00
28 513 BOCHENT MATTHIEU 00:50:04 SEM 9 00:12:40 00:11:27 NON LICENCIE 11,984 05:00
29 544 BERNARD ALEXANDRE 00:50:24 SEM 10 00:13:00 00:11:47 ATHLETISME CLUB OUTREAU 11,905 05:02
30 527 DUPONT PATRICK 00:50:30 V2M 6 00:13:06 00:05:25 LE DRAPEAU 11,881 05:03
31 553 FOUCAULT PASCAL 00:50:53 V2M 7 00:13:29 00:05:48 CULTURE DANSE ETAPLES 11,792 05:05
32 501 MARIETTE YVETTE 00:51:25 V2F 1 00:14:01 00:00:00 LE DRAPEAU 11,669 05:08
33 514 EBLE AGNES 00:51:30 SEF 1 00:14:06 00:00:00 LE DRAPEAU 11,650 05:09
34 548 LEROUGE DAVID 00:52:20 V1M 14 00:14:56 00:14:56 C.S. NESLES 11,465 05:14
35 508 MAILLARD BEATRICE 00:52:28 V1F 1 00:15:04 00:00:00 NON LICENCIE 11,436 05:15
36 547 HENEBEL LUC 00:53:40 V1M 15 00:16:16 00:16:16 NON LICENCIE 11,180 05:22
37 549 PLOUVIN ARNAUD 00:53:46 V1M 16 00:16:22 00:16:22 NON LICENCIE 11,159 05:23
38 540 GOURDIN FREDERIQUE 00:54:07 V1F 2 00:16:43 00:01:39 NON LICENCIE 11,087 05:25
39 507 MAILLARD GAETAN 00:54:30 V2M 8 00:17:06 00:09:25 NON LICENCIE 11,009 05:27
40 554 LALLEMENT XAVIER 00:57:03 SEM 11 00:19:39 00:18:26 NON LICENCIE 10,517 05:42
41 534 PARIS VIRGINIE 00:57:09 SEF 2 00:19:45 00:05:39   10,499 05:43
42 512 DEWEER GAELLE 00:57:10 SEF 3 00:19:46 00:05:40 NON LICENCIE 10,496 05:43
43 535 PARIS JEROME 00:57:42 SEM 12 00:20:18 00:19:05   10,399 05:46
44 555 FAUQUEMBERGUE PHILIPPE 00:59:39 V1M 17 00:22:15 00:22:15 NON LICENCIE 10,059 05:58
45 519 CARDON FRANCK 01:01:14 V1M 18 00:23:50 00:23:50 LE DRAPEAU 9,799 06:07
46 557 PHILIPPOT LAETITIA 01:01:31 SEF 4 00:24:07 00:10:01 CULTURE DANSE ETAPLES 9,753 06:09
47 558 MAGNIER REGIS 01:01:31 V1M 19 00:24:07 00:24:07 CULTURE DANSE ETAPLES 9,753 06:09
48 552 FOUCAULT CATHERINE 01:02:03 V2F 2 00:24:39 00:10:38 CULTURE DANSE ETAPLES 9,670 06:12
49 545 LECLERCQ ANNE-MARIE 01:04:11 V3F 1 00:26:47 00:00:00 SAINT MARTIN ATHLETISME 9,348 06:25